sensor_id;sensor_type;location;lat;lon;timestamp;P1;durP1;ratioP1;P2;durP2;ratioP2
65187;SDS011;51775;51.148;6.950;2023-06-10T00:01:17;4.57;;;4.10;;
65187;SDS011;51775;51.148;6.950;2023-06-10T00:03:43;4.78;;;4.28;;
65187;SDS011;51775;51.148;6.950;2023-06-10T00:06:08;5.18;;;4.03;;
65187;SDS011;51775;51.148;6.950;2023-06-10T00:08:33;5.35;;;4.28;;
65187;SDS011;51775;51.148;6.950;2023-06-10T00:10:58;4.78;;;4.18;;
65187;SDS011;51775;51.148;6.950;2023-06-10T00:13:24;4.88;;;4.15;;
65187;SDS011;51775;51.148;6.950;2023-06-10T00:15:49;4.68;;;4.10;;
65187;SDS011;51775;51.148;6.950;2023-06-10T00:18:14;4.95;;;4.25;;
65187;SDS011;51775;51.148;6.950;2023-06-10T00:20:39;4.80;;;4.30;;
65187;SDS011;51775;51.148;6.950;2023-06-10T00:23:05;5.00;;;4.10;;
65187;SDS011;51775;51.148;6.950;2023-06-10T00:25:30;4.30;;;3.90;;
65187;SDS011;51775;51.148;6.950;2023-06-10T00:27:55;4.60;;;4.10;;
65187;SDS011;51775;51.148;6.950;2023-06-10T00:30:21;4.27;;;3.87;;
65187;SDS011;51775;51.148;6.950;2023-06-10T00:32:46;4.32;;;3.80;;
65187;SDS011;51775;51.148;6.950;2023-06-10T00:35:11;4.80;;;4.10;;
65187;SDS011;51775;51.148;6.950;2023-06-10T00:37:36;4.40;;;3.90;;
65187;SDS011;51775;51.148;6.950;2023-06-10T00:40:02;4.63;;;4.10;;
65187;SDS011;51775;51.148;6.950;2023-06-10T00:42:28;4.80;;;4.10;;
65187;SDS011;51775;51.148;6.950;2023-06-10T00:44:54;5.07;;;4.03;;
65187;SDS011;51775;51.148;6.950;2023-06-10T00:47:19;5.90;;;4.20;;
65187;SDS011;51775;51.148;6.950;2023-06-10T00:49:46;4.93;;;4.43;;
65187;SDS011;51775;51.148;6.950;2023-06-10T00:52:12;4.32;;;3.92;;
65187;SDS011;51775;51.148;6.950;2023-06-10T00:54:39;4.72;;;4.22;;
65187;SDS011;51775;51.148;6.950;2023-06-10T00:57:05;5.15;;;4.20;;
65187;SDS011;51775;51.148;6.950;2023-06-10T00:59:30;4.60;;;4.05;;
65187;SDS011;51775;51.148;6.950;2023-06-10T01:01:56;4.30;;;3.80;;
65187;SDS011;51775;51.148;6.950;2023-06-10T01:04:22;4.60;;;4.10;;
65187;SDS011;51775;51.148;6.950;2023-06-10T01:06:50;4.35;;;3.95;;
65187;SDS011;51775;51.148;6.950;2023-06-10T01:09:38;4.80;;;4.30;;
65187;SDS011;51775;51.148;6.950;2023-06-10T01:14:59;4.57;;;3.90;;
65187;SDS011;51775;51.148;6.950;2023-06-10T01:17:26;4.43;;;3.90;;
65187;SDS011;51775;51.148;6.950;2023-06-10T01:19:55;4.63;;;4.07;;
65187;SDS011;51775;51.148;6.950;2023-06-10T01:22:22;4.72;;;4.13;;
65187;SDS011;51775;51.148;6.950;2023-06-10T01:24:52;4.55;;;3.95;;
65187;SDS011;51775;51.148;6.950;2023-06-10T01:27:17;4.68;;;3.78;;
65187;SDS011;51775;51.148;6.950;2023-06-10T01:29:46;4.50;;;4.03;;
65187;SDS011;51775;51.148;6.950;2023-06-10T01:32:18;4.13;;;3.72;;
65187;SDS011;51775;51.148;6.950;2023-06-10T01:34:47;4.50;;;4.07;;
65187;SDS011;51775;51.148;6.950;2023-06-10T01:37:15;4.80;;;4.18;;
65187;SDS011;51775;51.148;6.950;2023-06-10T01:39:45;4.80;;;4.30;;
65187;SDS011;51775;51.148;6.950;2023-06-10T01:42:12;4.38;;;3.97;;
65187;SDS011;51775;51.148;6.950;2023-06-10T01:44:38;4.28;;;3.63;;
65187;SDS011;51775;51.148;6.950;2023-06-10T01:47:04;5.35;;;4.10;;
65187;SDS011;51775;51.148;6.950;2023-06-10T01:49:30;4.47;;;4.00;;
65187;SDS011;51775;51.148;6.950;2023-06-10T01:51:55;4.68;;;4.03;;
65187;SDS011;51775;51.148;6.950;2023-06-10T01:54:20;4.50;;;3.97;;
65187;SDS011;51775;51.148;6.950;2023-06-10T01:56:45;4.68;;;4.18;;
65187;SDS011;51775;51.148;6.950;2023-06-10T01:59:11;4.68;;;4.18;;
65187;SDS011;51775;51.148;6.950;2023-06-10T02:01:36;4.50;;;3.92;;
65187;SDS011;51775;51.148;6.950;2023-06-10T02:04:01;4.90;;;4.10;;
65187;SDS011;51775;51.148;6.950;2023-06-10T02:06:27;4.80;;;4.20;;
65187;SDS011;51775;51.148;6.950;2023-06-10T02:08:52;4.40;;;4.00;;
65187;SDS011;51775;51.148;6.950;2023-06-10T02:11:17;4.47;;;4.07;;
65187;SDS011;51775;51.148;6.950;2023-06-10T02:13:42;4.93;;;4.20;;
65187;SDS011;51775;51.148;6.950;2023-06-10T02:16:08;4.75;;;4.07;;
65187;SDS011;51775;51.148;6.950;2023-06-10T02:18:33;4.57;;;3.97;;
65187;SDS011;51775;51.148;6.950;2023-06-10T02:21:01;4.68;;;3.85;;
65187;SDS011;51775;51.148;6.950;2023-06-10T02:23:26;4.38;;;3.97;;
65187;SDS011;51775;51.148;6.950;2023-06-10T02:25:51;5.60;;;4.38;;
65187;SDS011;51775;51.148;6.950;2023-06-10T02:28:16;4.60;;;4.00;;
65187;SDS011;51775;51.148;6.950;2023-06-10T02:30:42;4.50;;;3.97;;
65187;SDS011;51775;51.148;6.950;2023-06-10T02:33:07;4.68;;;4.18;;
65187;SDS011;51775;51.148;6.950;2023-06-10T02:35:33;4.40;;;3.70;;
65187;SDS011;51775;51.148;6.950;2023-06-10T02:37:59;4.55;;;4.05;;
65187;SDS011;51775;51.148;6.950;2023-06-10T02:40:24;5.20;;;3.83;;
65187;SDS011;51775;51.148;6.950;2023-06-10T02:42:49;4.40;;;3.90;;
65187;SDS011;51775;51.148;6.950;2023-06-10T02:45:15;5.00;;;4.30;;
65187;SDS011;51775;51.148;6.950;2023-06-10T02:47:41;4.35;;;3.92;;
65187;SDS011;51775;51.148;6.950;2023-06-10T02:50:06;4.38;;;3.85;;
65187;SDS011;51775;51.148;6.950;2023-06-10T02:52:32;4.90;;;4.10;;
65187;SDS011;51775;51.148;6.950;2023-06-10T02:54:57;4.47;;;4.00;;
65187;SDS011;51775;51.148;6.950;2023-06-10T02:57:22;4.57;;;3.83;;
65187;SDS011;51775;51.148;6.950;2023-06-10T02:59:48;4.65;;;4.10;;
65187;SDS011;51775;51.148;6.950;2023-06-10T03:02:13;4.50;;;3.85;;
65187;SDS011;51775;51.148;6.950;2023-06-10T03:04:38;4.60;;;3.95;;
65187;SDS011;51775;51.148;6.950;2023-06-10T03:07:03;4.50;;;3.90;;
65187;SDS011;51775;51.148;6.950;2023-06-10T03:09:32;4.75;;;4.25;;
65187;SDS011;51775;51.148;6.950;2023-06-10T03:11:57;5.03;;;4.10;;
65187;SDS011;51775;51.148;6.950;2023-06-10T03:14:23;4.82;;;4.15;;
65187;SDS011;51775;51.148;6.950;2023-06-10T03:16:48;4.45;;;3.80;;
65187;SDS011;51775;51.148;6.950;2023-06-10T03:19:14;4.40;;;3.90;;
65187;SDS011;51775;51.148;6.950;2023-06-10T03:21:39;4.38;;;3.95;;
65187;SDS011;51775;51.148;6.950;2023-06-10T03:24:08;4.72;;;4.20;;
65187;SDS011;51775;51.148;6.950;2023-06-10T03:26:33;4.18;;;3.70;;
65187;SDS011;51775;51.148;6.950;2023-06-10T03:28:59;4.57;;;4.07;;
65187;SDS011;51775;51.148;6.950;2023-06-10T03:31:24;4.40;;;3.75;;
65187;SDS011;51775;51.148;6.950;2023-06-10T03:33:49;4.53;;;4.03;;
65187;SDS011;51775;51.148;6.950;2023-06-10T03:36:15;4.60;;;3.90;;
65187;SDS011;51775;51.148;6.950;2023-06-10T03:38:40;4.85;;;4.30;;
65187;SDS011;51775;51.148;6.950;2023-06-10T03:41:05;4.70;;;4.07;;
65187;SDS011;51775;51.148;6.950;2023-06-10T03:43:31;4.53;;;3.97;;
65187;SDS011;51775;51.148;6.950;2023-06-10T03:45:56;5.00;;;4.50;;
65187;SDS011;51775;51.148;6.950;2023-06-10T03:48:21;4.80;;;4.30;;
65187;SDS011;51775;51.148;6.950;2023-06-10T03:50:46;4.45;;;4.00;;
65187;SDS011;51775;51.148;6.950;2023-06-10T03:53:12;4.70;;;3.97;;
65187;SDS011;51775;51.148;6.950;2023-06-10T03:55:37;4.95;;;4.15;;
65187;SDS011;51775;51.148;6.950;2023-06-10T03:58:02;4.63;;;4.13;;
65187;SDS011;51775;51.148;6.950;2023-06-10T04:00:27;5.22;;;4.22;;
65187;SDS011;51775;51.148;6.950;2023-06-10T04:02:53;5.00;;;4.30;;
65187;SDS011;51775;51.148;6.950;2023-06-10T04:05:18;5.30;;;4.10;;
65187;SDS011;51775;51.148;6.950;2023-06-10T04:07:44;4.47;;;3.95;;
65187;SDS011;51775;51.148;6.950;2023-06-10T04:10:12;4.50;;;3.92;;
65187;SDS011;51775;51.148;6.950;2023-06-10T04:12:37;4.43;;;3.85;;
65187;SDS011;51775;51.148;6.950;2023-06-10T04:15:04;4.68;;;4.10;;
65187;SDS011;51775;51.148;6.950;2023-06-10T04:17:30;4.50;;;3.90;;
65187;SDS011;51775;51.148;6.950;2023-06-10T04:19:56;5.45;;;4.35;;
65187;SDS011;51775;51.148;6.950;2023-06-10T04:22:21;4.85;;;4.10;;
65187;SDS011;51775;51.148;6.950;2023-06-10T04:24:47;5.63;;;4.20;;
65187;SDS011;51775;51.148;6.950;2023-06-10T04:27:12;4.88;;;3.97;;
65187;SDS011;51775;51.148;6.950;2023-06-10T04:29:37;4.95;;;4.03;;
65187;SDS011;51775;51.148;6.950;2023-06-10T04:32:03;4.70;;;4.20;;
65187;SDS011;51775;51.148;6.950;2023-06-10T04:34:28;4.53;;;4.03;;
65187;SDS011;51775;51.148;6.950;2023-06-10T04:36:54;5.28;;;4.47;;
65187;SDS011;51775;51.148;6.950;2023-06-10T04:39:19;4.50;;;4.03;;
65187;SDS011;51775;51.148;6.950;2023-06-10T04:41:44;4.95;;;4.30;;
65187;SDS011;51775;51.148;6.950;2023-06-10T04:44:12;4.55;;;3.85;;
65187;SDS011;51775;51.148;6.950;2023-06-10T04:46:37;5.22;;;4.20;;
65187;SDS011;51775;51.148;6.950;2023-06-10T04:49:03;5.20;;;4.38;;
65187;SDS011;51775;51.148;6.950;2023-06-10T04:51:28;5.25;;;4.50;;
65187;SDS011;51775;51.148;6.950;2023-06-10T04:53:53;4.97;;;4.27;;
65187;SDS011;51775;51.148;6.950;2023-06-10T04:56:19;4.95;;;4.32;;
65187;SDS011;51775;51.148;6.950;2023-06-10T04:58:44;5.18;;;4.10;;
65187;SDS011;51775;51.148;6.950;2023-06-10T05:01:09;5.10;;;4.13;;
65187;SDS011;51775;51.148;6.950;2023-06-10T05:03:35;5.03;;;4.18;;
65187;SDS011;51775;51.148;6.950;2023-06-10T05:06:00;4.80;;;4.30;;
65187;SDS011;51775;51.148;6.950;2023-06-10T05:08:25;4.72;;;4.07;;
65187;SDS011;51775;51.148;6.950;2023-06-10T05:10:50;4.68;;;4.18;;
65187;SDS011;51775;51.148;6.950;2023-06-10T05:13:16;5.13;;;4.22;;
65187;SDS011;51775;51.148;6.950;2023-06-10T05:15:41;5.05;;;4.53;;
65187;SDS011;51775;51.148;6.950;2023-06-10T05:18:07;6.95;;;4.25;;
65187;SDS011;51775;51.148;6.950;2023-06-10T05:20:32;5.75;;;4.20;;
65187;SDS011;51775;51.148;6.950;2023-06-10T05:22:57;6.05;;;4.30;;
65187;SDS011;51775;51.148;6.950;2023-06-10T05:25:22;4.68;;;4.10;;
65187;SDS011;51775;51.148;6.950;2023-06-10T05:27:48;4.90;;;3.80;;
65187;SDS011;51775;51.148;6.950;2023-06-10T05:30:13;5.05;;;4.32;;
65187;SDS011;51775;51.148;6.950;2023-06-10T05:32:38;5.68;;;4.07;;
65187;SDS011;51775;51.148;6.950;2023-06-10T05:35:04;5.03;;;4.20;;
65187;SDS011;51775;51.148;6.950;2023-06-10T05:37:29;4.88;;;4.35;;
65187;SDS011;51775;51.148;6.950;2023-06-10T05:39:54;4.85;;;4.30;;
65187;SDS011;51775;51.148;6.950;2023-06-10T05:42:20;5.10;;;4.18;;
65187;SDS011;51775;51.148;6.950;2023-06-10T05:44:45;4.60;;;3.85;;
65187;SDS011;51775;51.148;6.950;2023-06-10T05:47:10;4.32;;;3.88;;
65187;SDS011;51775;51.148;6.950;2023-06-10T05:49:36;4.72;;;3.95;;
65187;SDS011;51775;51.148;6.950;2023-06-10T05:52:01;6.40;;;4.00;;
65187;SDS011;51775;51.148;6.950;2023-06-10T05:54:26;5.00;;;4.30;;
65187;SDS011;51775;51.148;6.950;2023-06-10T05:56:52;5.15;;;4.05;;
65187;SDS011;51775;51.148;6.950;2023-06-10T05:59:17;4.80;;;4.03;;
65187;SDS011;51775;51.148;6.950;2023-06-10T06:01:42;4.32;;;3.85;;
65187;SDS011;51775;51.148;6.950;2023-06-10T06:04:07;4.50;;;3.78;;
65187;SDS011;51775;51.148;6.950;2023-06-10T06:06:34;4.85;;;3.95;;
65187;SDS011;51775;51.148;6.950;2023-06-10T06:09:00;4.50;;;4.00;;
65187;SDS011;51775;51.148;6.950;2023-06-10T06:11:25;5.07;;;4.20;;
65187;SDS011;51775;51.148;6.950;2023-06-10T06:13:50;5.93;;;4.07;;
65187;SDS011;51775;51.148;6.950;2023-06-10T06:16:16;4.70;;;4.00;;
65187;SDS011;51775;51.148;6.950;2023-06-10T06:18:41;5.50;;;4.10;;
65187;SDS011;51775;51.148;6.950;2023-06-10T06:21:06;4.32;;;3.90;;
65187;SDS011;51775;51.148;6.950;2023-06-10T06:23:31;4.32;;;3.88;;
65187;SDS011;51775;51.148;6.950;2023-06-10T06:25:57;4.65;;;3.95;;
65187;SDS011;51775;51.148;6.950;2023-06-10T06:28:22;5.13;;;4.07;;
65187;SDS011;51775;51.148;6.950;2023-06-10T06:30:47;4.85;;;3.92;;
65187;SDS011;51775;51.148;6.950;2023-06-10T06:33:13;4.47;;;3.92;;
65187;SDS011;51775;51.148;6.950;2023-06-10T06:35:38;4.57;;;3.97;;
65187;SDS011;51775;51.148;6.950;2023-06-10T06:38:03;4.32;;;3.80;;
65187;SDS011;51775;51.148;6.950;2023-06-10T06:40:29;4.30;;;3.70;;
65187;SDS011;51775;51.148;6.950;2023-06-10T06:42:54;5.15;;;4.00;;
65187;SDS011;51775;51.148;6.950;2023-06-10T06:45:19;4.10;;;3.50;;
65187;SDS011;51775;51.148;6.950;2023-06-10T06:47:45;4.32;;;3.70;;
65187;SDS011;51775;51.148;6.950;2023-06-10T06:50:10;4.03;;;3.60;;
65187;SDS011;51775;51.148;6.950;2023-06-10T06:52:35;4.80;;;3.73;;
65187;SDS011;51775;51.148;6.950;2023-06-10T06:55:00;4.60;;;3.83;;
65187;SDS011;51775;51.148;6.950;2023-06-10T06:57:26;4.57;;;3.92;;
65187;SDS011;51775;51.148;6.950;2023-06-10T06:59:51;4.45;;;3.80;;
65187;SDS011;51775;51.148;6.950;2023-06-10T07:02:16;4.63;;;3.70;;
65187;SDS011;51775;51.148;6.950;2023-06-10T07:04:41;4.97;;;4.10;;
65187;SDS011;51775;51.148;6.950;2023-06-10T07:07:07;4.22;;;3.60;;
65187;SDS011;51775;51.148;6.950;2023-06-10T07:09:32;4.20;;;3.53;;
65187;SDS011;51775;51.148;6.950;2023-06-10T07:11:58;4.33;;;3.60;;
65187;SDS011;51775;51.148;6.950;2023-06-10T07:14:23;4.47;;;3.60;;
65187;SDS011;51775;51.148;6.950;2023-06-10T07:16:48;4.30;;;3.45;;
65187;SDS011;51775;51.148;6.950;2023-06-10T07:19:13;3.80;;;3.40;;
65187;SDS011;51775;51.148;6.950;2023-06-10T07:21:39;4.35;;;3.67;;
65187;SDS011;51775;51.148;6.950;2023-06-10T07:24:04;5.50;;;3.50;;
65187;SDS011;51775;51.148;6.950;2023-06-10T07:26:30;4.22;;;3.60;;
65187;SDS011;51775;51.148;6.950;2023-06-10T07:28:57;4.30;;;3.70;;
65187;SDS011;51775;51.148;6.950;2023-06-10T07:31:22;4.47;;;3.67;;
65187;SDS011;51775;51.148;6.950;2023-06-10T07:33:48;4.22;;;3.58;;
65187;SDS011;51775;51.148;6.950;2023-06-10T07:36:13;5.18;;;3.40;;
65187;SDS011;51775;51.148;6.950;2023-06-10T07:38:39;4.15;;;3.60;;
65187;SDS011;51775;51.148;6.950;2023-06-10T07:41:04;4.45;;;3.58;;
65187;SDS011;51775;51.148;6.950;2023-06-10T07:43:29;4.72;;;3.70;;
65187;SDS011;51775;51.148;6.950;2023-06-10T07:45:54;4.38;;;3.60;;
65187;SDS011;51775;51.148;6.950;2023-06-10T07:48:20;4.68;;;3.72;;
65187;SDS011;51775;51.148;6.950;2023-06-10T07:50:45;4.30;;;3.50;;
65187;SDS011;51775;51.148;6.950;2023-06-10T07:53:10;4.18;;;3.20;;
65187;SDS011;51775;51.148;6.950;2023-06-10T07:55:35;3.80;;;3.40;;
65187;SDS011;51775;51.148;6.950;2023-06-10T07:58:01;3.97;;;3.50;;
65187;SDS011;51775;51.148;6.950;2023-06-10T08:00:26;4.07;;;3.40;;
65187;SDS011;51775;51.148;6.950;2023-06-10T08:02:51;4.57;;;3.67;;
65187;SDS011;51775;51.148;6.950;2023-06-10T08:05:17;3.80;;;3.40;;
65187;SDS011;51775;51.148;6.950;2023-06-10T08:07:42;3.83;;;3.42;;
65187;SDS011;51775;51.148;6.950;2023-06-10T08:10:07;3.75;;;3.28;;
65187;SDS011;51775;51.148;6.950;2023-06-10T08:12:33;4.35;;;3.53;;
65187;SDS011;51775;51.148;6.950;2023-06-10T08:14:59;4.50;;;3.70;;
65187;SDS011;51775;51.148;6.950;2023-06-10T08:17:25;4.15;;;3.60;;
65187;SDS011;51775;51.148;6.950;2023-06-10T08:19:50;4.05;;;3.55;;
65187;SDS011;51775;51.148;6.950;2023-06-10T08:22:16;3.70;;;3.30;;
65187;SDS011;51775;51.148;6.950;2023-06-10T08:24:41;4.30;;;3.70;;
65187;SDS011;51775;51.148;6.950;2023-06-10T08:27:06;4.10;;;3.30;;
65187;SDS011;51775;51.148;6.950;2023-06-10T08:29:32;3.75;;;3.30;;
65187;SDS011;51775;51.148;6.950;2023-06-10T08:31:58;4.03;;;3.53;;
65187;SDS011;51775;51.148;6.950;2023-06-10T08:34:23;4.03;;;3.53;;
65187;SDS011;51775;51.148;6.950;2023-06-10T08:36:49;3.78;;;3.35;;
65187;SDS011;51775;51.148;6.950;2023-06-10T08:39:15;4.07;;;3.40;;
65187;SDS011;51775;51.148;6.950;2023-06-10T08:41:43;6.28;;;3.75;;
65187;SDS011;51775;51.148;6.950;2023-06-10T08:44:28;4.13;;;3.70;;
65187;SDS011;51775;51.148;6.950;2023-06-10T08:46:58;4.53;;;3.80;;
65187;SDS011;51775;51.148;6.950;2023-06-10T08:49:24;4.15;;;3.60;;
65187;SDS011;51775;51.148;6.950;2023-06-10T08:51:51;4.10;;;3.70;;
65187;SDS011;51775;51.148;6.950;2023-06-10T08:54:24;4.53;;;3.58;;
65187;SDS011;51775;51.148;6.950;2023-06-10T08:56:51;4.43;;;3.58;;
65187;SDS011;51775;51.148;6.950;2023-06-10T08:59:21;4.15;;;3.70;;
65187;SDS011;51775;51.148;6.950;2023-06-10T09:01:47;6.30;;;3.78;;
65187;SDS011;51775;51.148;6.950;2023-06-10T09:04:13;7.32;;;3.50;;
65187;SDS011;51775;51.148;6.950;2023-06-10T09:06:38;4.20;;;3.50;;
65187;SDS011;51775;51.148;6.950;2023-06-10T09:09:05;4.50;;;3.63;;
65187;SDS011;51775;51.148;6.950;2023-06-10T09:11:31;4.60;;;3.50;;
65187;SDS011;51775;51.148;6.950;2023-06-10T09:13:57;4.22;;;3.63;;
65187;SDS011;51775;51.148;6.950;2023-06-10T09:16:23;4.50;;;3.70;;
65187;SDS011;51775;51.148;6.950;2023-06-10T09:18:49;3.97;;;3.58;;
65187;SDS011;51775;51.148;6.950;2023-06-10T09:21:15;5.72;;;3.72;;
65187;SDS011;51775;51.148;6.950;2023-06-10T09:23:40;4.88;;;3.67;;
65187;SDS011;51775;51.148;6.950;2023-06-10T09:26:08;6.43;;;3.33;;
65187;SDS011;51775;51.148;6.950;2023-06-10T09:28:34;6.72;;;3.80;;
65187;SDS011;51775;51.148;6.950;2023-06-10T09:31:03;4.40;;;3.70;;
65187;SDS011;51775;51.148;6.950;2023-06-10T09:33:29;7.00;;;3.60;;
65187;SDS011;51775;51.148;6.950;2023-06-10T09:35:54;4.72;;;3.75;;
65187;SDS011;51775;51.148;6.950;2023-06-10T09:38:20;3.97;;;3.50;;
65187;SDS011;51775;51.148;6.950;2023-06-10T09:40:50;4.38;;;3.58;;
65187;SDS011;51775;51.148;6.950;2023-06-10T09:43:16;4.53;;;3.45;;
65187;SDS011;51775;51.148;6.950;2023-06-10T09:45:42;4.43;;;3.35;;
65187;SDS011;51775;51.148;6.950;2023-06-10T09:48:07;4.20;;;3.58;;
65187;SDS011;51775;51.148;6.950;2023-06-10T09:50:33;4.10;;;3.30;;
65187;SDS011;51775;51.148;6.950;2023-06-10T09:52:58;4.13;;;3.42;;
65187;SDS011;51775;51.148;6.950;2023-06-10T09:55:24;4.53;;;3.42;;
65187;SDS011;51775;51.148;6.950;2023-06-10T09:57:52;4.40;;;3.08;;
65187;SDS011;51775;51.148;6.950;2023-06-10T10:00:19;5.15;;;3.80;;
65187;SDS011;51775;51.148;6.950;2023-06-10T10:02:50;4.53;;;3.47;;
65187;SDS011;51775;51.148;6.950;2023-06-10T10:05:17;7.32;;;3.50;;
65187;SDS011;51775;51.148;6.950;2023-06-10T10:07:44;6.07;;;3.60;;
65187;SDS011;51775;51.148;6.950;2023-06-10T10:10:10;8.90;;;3.70;;
65187;SDS011;51775;51.148;6.950;2023-06-10T10:12:40;6.50;;;3.58;;
65187;SDS011;51775;51.148;6.950;2023-06-10T10:15:06;6.25;;;3.63;;
65187;SDS011;51775;51.148;6.950;2023-06-10T10:17:33;5.75;;;3.95;;
65187;SDS011;51775;51.148;6.950;2023-06-10T10:20:03;4.43;;;3.25;;
65187;SDS011;51775;51.148;6.950;2023-06-10T10:22:31;5.35;;;3.65;;
65187;SDS011;51775;51.148;6.950;2023-06-10T10:25:02;5.45;;;4.13;;
65187;SDS011;51775;51.148;6.950;2023-06-10T10:27:48;4.63;;;3.67;;
65187;SDS011;51775;51.148;6.950;2023-06-10T10:30:18;5.32;;;3.60;;
65187;SDS011;51775;51.148;6.950;2023-06-10T10:33:09;4.38;;;3.80;;
65187;SDS011;51775;51.148;6.950;2023-06-10T10:35:49;4.88;;;3.60;;
65187;SDS011;51775;51.148;6.950;2023-06-10T10:38:16;6.03;;;3.85;;
65187;SDS011;51775;51.148;6.950;2023-06-10T10:40:42;4.88;;;3.80;;
65187;SDS011;51775;51.148;6.950;2023-06-10T10:43:08;7.53;;;3.70;;
65187;SDS011;51775;51.148;6.950;2023-06-10T10:45:35;5.05;;;3.78;;
65187;SDS011;51775;51.148;6.950;2023-06-10T10:48:04;5.28;;;3.63;;
65187;SDS011;51775;51.148;6.950;2023-06-10T10:50:33;5.00;;;3.70;;
65187;SDS011;51775;51.148;6.950;2023-06-10T10:52:59;5.35;;;3.78;;
65187;SDS011;51775;51.148;6.950;2023-06-10T10:55:26;6.28;;;3.53;;
65187;SDS011;51775;51.148;6.950;2023-06-10T10:57:55;4.45;;;3.88;;
65187;SDS011;51775;51.148;6.950;2023-06-10T11:00:26;4.65;;;3.90;;
65187;SDS011;51775;51.148;6.950;2023-06-10T11:05:40;4.70;;;3.83;;
65187;SDS011;51775;51.148;6.950;2023-06-10T11:08:12;4.55;;;3.90;;
65187;SDS011;51775;51.148;6.950;2023-06-10T11:10:38;5.05;;;3.90;;
65187;SDS011;51775;51.148;6.950;2023-06-10T11:13:05;4.72;;;3.78;;
65187;SDS011;51775;51.148;6.950;2023-06-10T11:15:37;5.20;;;3.90;;
65187;SDS011;51775;51.148;6.950;2023-06-10T11:24:00;4.90;;;4.13;;
65187;SDS011;51775;51.148;6.950;2023-06-10T11:26:20;5.07;;;4.20;;
65187;SDS011;51775;51.148;6.950;2023-06-10T11:31:20;5.18;;;4.20;;
65187;SDS011;51775;51.148;6.950;2023-06-10T11:33:52;6.93;;;4.40;;
65187;SDS011;51775;51.148;6.950;2023-06-10T11:36:18;5.70;;;4.10;;
65187;SDS011;51775;51.148;6.950;2023-06-10T11:38:44;5.40;;;4.40;;
65187;SDS011;51775;51.148;6.950;2023-06-10T11:41:10;5.68;;;4.35;;
65187;SDS011;51775;51.148;6.950;2023-06-10T11:43:36;5.18;;;4.20;;
65187;SDS011;51775;51.148;6.950;2023-06-10T11:46:11;6.05;;;4.90;;
65187;SDS011;51775;51.148;6.950;2023-06-10T11:48:37;5.10;;;4.32;;
65187;SDS011;51775;51.148;6.950;2023-06-10T11:51:06;6.72;;;4.80;;
65187;SDS011;51775;51.148;6.950;2023-06-10T11:53:32;5.15;;;4.40;;
65187;SDS011;51775;51.148;6.950;2023-06-10T11:55:57;4.90;;;4.13;;
65187;SDS011;51775;51.148;6.950;2023-06-10T11:58:23;8.02;;;4.80;;
65187;SDS011;51775;51.148;6.950;2023-06-10T12:00:52;5.90;;;4.70;;
65187;SDS011;51775;51.148;6.950;2023-06-10T12:03:19;6.25;;;4.90;;
65187;SDS011;51775;51.148;6.950;2023-06-10T12:05:57;5.63;;;4.80;;
65187;SDS011;51775;51.148;6.950;2023-06-10T12:08:24;5.75;;;4.25;;
65187;SDS011;51775;51.148;6.950;2023-06-10T12:10:50;6.70;;;5.10;;
65187;SDS011;51775;51.148;6.950;2023-06-10T12:13:15;7.78;;;5.20;;
65187;SDS011;51775;51.148;6.950;2023-06-10T12:15:40;6.95;;;5.18;;
65187;SDS011;51775;51.148;6.950;2023-06-10T12:18:06;7.10;;;5.50;;
65187;SDS011;51775;51.148;6.950;2023-06-10T12:20:32;6.05;;;5.20;;
65187;SDS011;51775;51.148;6.950;2023-06-10T12:22:57;5.82;;;4.80;;
65187;SDS011;51775;51.148;6.950;2023-06-10T12:25:26;5.97;;;4.85;;
65187;SDS011;51775;51.148;6.950;2023-06-10T12:27:54;6.03;;;4.68;;
65187;SDS011;51775;51.148;6.950;2023-06-10T12:30:24;7.07;;;5.00;;
65187;SDS011;51775;51.148;6.950;2023-06-10T12:32:50;7.25;;;4.90;;
65187;SDS011;51775;51.148;6.950;2023-06-10T12:35:17;5.55;;;4.90;;
65187;SDS011;51775;51.148;6.950;2023-06-10T12:37:54;8.75;;;5.28;;
65187;SDS011;51775;51.148;6.950;2023-06-10T12:40:32;5.65;;;4.82;;
65187;SDS011;51775;51.148;6.950;2023-06-10T12:42:59;6.22;;;5.22;;
65187;SDS011;51775;51.148;6.950;2023-06-10T12:45:31;7.70;;;4.72;;
65187;SDS011;51775;51.148;6.950;2023-06-10T12:48:07;7.15;;;5.30;;
65187;SDS011;51775;51.148;6.950;2023-06-10T12:50:38;6.47;;;5.40;;
65187;SDS011;51775;51.148;6.950;2023-06-10T12:53:04;6.97;;;5.30;;
65187;SDS011;51775;51.148;6.950;2023-06-10T12:55:30;6.80;;;5.30;;
65187;SDS011;51775;51.148;6.950;2023-06-10T12:57:56;6.80;;;5.30;;
65187;SDS011;51775;51.148;6.950;2023-06-10T13:00:21;7.15;;;5.43;;
65187;SDS011;51775;51.148;6.950;2023-06-10T13:02:48;6.53;;;5.40;;
65187;SDS011;51775;51.148;6.950;2023-06-10T13:05:13;6.30;;;5.10;;
65187;SDS011;51775;51.148;6.950;2023-06-10T13:07:39;6.60;;;5.68;;
65187;SDS011;51775;51.148;6.950;2023-06-10T13:10:04;6.50;;;5.17;;
65187;SDS011;51775;51.148;6.950;2023-06-10T13:12:30;6.60;;;5.40;;
65187;SDS011;51775;51.148;6.950;2023-06-10T13:14:55;7.13;;;4.97;;
65187;SDS011;51775;51.148;6.950;2023-06-10T13:17:20;6.55;;;5.10;;
65187;SDS011;51775;51.148;6.950;2023-06-10T13:19:46;6.13;;;5.07;;
65187;SDS011;51775;51.148;6.950;2023-06-10T13:22:11;7.22;;;5.40;;
65187;SDS011;51775;51.148;6.950;2023-06-10T13:24:38;8.60;;;4.85;;
65187;SDS011;51775;51.148;6.950;2023-06-10T13:27:04;7.53;;;5.07;;
65187;SDS011;51775;51.148;6.950;2023-06-10T13:29:29;6.65;;;5.30;;
65187;SDS011;51775;51.148;6.950;2023-06-10T13:31:55;5.50;;;4.90;;
65187;SDS011;51775;51.148;6.950;2023-06-10T13:34:20;7.40;;;5.47;;
65187;SDS011;51775;51.148;6.950;2023-06-10T13:36:45;6.25;;;5.10;;
65187;SDS011;51775;51.148;6.950;2023-06-10T13:39:10;5.80;;;5.00;;
65187;SDS011;51775;51.148;6.950;2023-06-10T13:41:36;6.03;;;5.15;;
65187;SDS011;51775;51.148;6.950;2023-06-10T13:44:01;6.30;;;5.35;;
65187;SDS011;51775;51.148;6.950;2023-06-10T13:46:27;6.55;;;5.30;;
65187;SDS011;51775;51.148;6.950;2023-06-10T13:48:52;6.85;;;5.25;;
65187;SDS011;51775;51.148;6.950;2023-06-10T13:51:17;7.10;;;5.23;;
65187;SDS011;51775;51.148;6.950;2023-06-10T13:53:43;6.83;;;5.33;;
65187;SDS011;51775;51.148;6.950;2023-06-10T13:56:08;6.15;;;5.07;;
65187;SDS011;51775;51.148;6.950;2023-06-10T13:58:33;5.88;;;5.00;;
65187;SDS011;51775;51.148;6.950;2023-06-10T14:00:58;6.45;;;5.10;;
65187;SDS011;51775;51.148;6.950;2023-06-10T14:03:24;5.38;;;4.78;;
65187;SDS011;51775;51.148;6.950;2023-06-10T14:05:49;6.70;;;4.95;;
65187;SDS011;51775;51.148;6.950;2023-06-10T14:08:14;4.97;;;4.15;;
65187;SDS011;51775;51.148;6.950;2023-06-10T14:10:40;7.03;;;5.00;;
65187;SDS011;51775;51.148;6.950;2023-06-10T14:13:05;8.02;;;4.90;;
65187;SDS011;51775;51.148;6.950;2023-06-10T14:15:30;8.05;;;5.57;;
65187;SDS011;51775;51.148;6.950;2023-06-10T14:17:55;5.63;;;4.57;;
65187;SDS011;51775;51.148;6.950;2023-06-10T14:20:21;6.23;;;4.80;;
65187;SDS011;51775;51.148;6.950;2023-06-10T14:22:46;6.75;;;5.22;;
65187;SDS011;51775;51.148;6.950;2023-06-10T14:25:11;5.95;;;4.68;;
65187;SDS011;51775;51.148;6.950;2023-06-10T14:27:37;6.60;;;5.07;;
65187;SDS011;51775;51.148;6.950;2023-06-10T14:30:02;6.25;;;5.18;;
65187;SDS011;51775;51.148;6.950;2023-06-10T14:32:28;8.02;;;4.93;;
65187;SDS011;51775;51.148;6.950;2023-06-10T14:34:53;6.78;;;5.13;;
65187;SDS011;51775;51.148;6.950;2023-06-10T14:37:18;5.88;;;5.00;;
65187;SDS011;51775;51.148;6.950;2023-06-10T14:39:43;6.35;;;4.80;;
65187;SDS011;51775;51.148;6.950;2023-06-10T14:42:09;6.17;;;4.87;;
65187;SDS011;51775;51.148;6.950;2023-06-10T14:44:34;5.63;;;4.85;;
65187;SDS011;51775;51.148;6.950;2023-06-10T14:46:59;6.83;;;4.90;;
65187;SDS011;51775;51.148;6.950;2023-06-10T14:49:24;6.28;;;4.75;;
65187;SDS011;51775;51.148;6.950;2023-06-10T14:51:50;5.50;;;4.50;;
65187;SDS011;51775;51.148;6.950;2023-06-10T14:54:15;5.40;;;4.40;;
65187;SDS011;51775;51.148;6.950;2023-06-10T14:56:40;6.00;;;4.68;;